sensor_id;sensor_type;location;lat;lon;timestamp;P1;P2;P0
76238;PMS7003;65043;48.392;-4.472;2023-05-07T00:01:25;7.00;7.00;3.25
76238;PMS7003;65043;48.392;-4.472;2023-05-07T00:03:51;12.25;8.00;4.25
76238;PMS7003;65043;48.392;-4.472;2023-05-07T00:06:16;9.50;7.75;4.50
76238;PMS7003;65043;48.392;-4.472;2023-05-07T00:08:42;7.50;7.50;3.50
76238;PMS7003;65043;48.392;-4.472;2023-05-07T00:11:07;7.50;6.25;3.25
76238;PMS7003;65043;48.392;-4.472;2023-05-07T00:13:32;6.00;5.50;3.50
76238;PMS7003;65043;48.392;-4.472;2023-05-07T00:16:00;7.00;7.00;4.50
76238;PMS7003;65043;48.392;-4.472;2023-05-07T00:18:27;7.75;7.75;4.50
76238;PMS7003;65043;48.392;-4.472;2023-05-07T00:20:53;12.75;8.75;5.75
76238;PMS7003;65043;48.392;-4.472;2023-05-07T00:23:18;13.25;11.00;5.50
76238;PMS7003;65043;48.392;-4.472;2023-05-07T00:25:44;13.50;10.50;5.00
76238;PMS7003;65043;48.392;-4.472;2023-05-07T00:28:09;14.00;10.75;6.25
76238;PMS7003;65043;48.392;-4.472;2023-05-07T00:30:35;11.75;10.50;5.50
76238;PMS7003;65043;48.392;-4.472;2023-05-07T00:33:00;16.50;13.25;7.00
76238;PMS7003;65043;48.392;-4.472;2023-05-07T00:35:26;12.75;12.25;7.50
76238;PMS7003;65043;48.392;-4.472;2023-05-07T00:37:51;16.50;14.50;7.00
76238;PMS7003;65043;48.392;-4.472;2023-05-07T00:40:16;16.25;12.75;7.00
76238;PMS7003;65043;48.392;-4.472;2023-05-07T00:42:42;15.00;11.00;6.00
76238;PMS7003;65043;48.392;-4.472;2023-05-07T00:45:11;13.25;9.50;5.75
76238;PMS7003;65043;48.392;-4.472;2023-05-07T00:47:38;15.25;11.50;7.00
76238;PMS7003;65043;48.392;-4.472;2023-05-07T00:50:04;13.25;11.50;7.00
76238;PMS7003;65043;48.392;-4.472;2023-05-07T00:52:30;16.50;13.25;7.25
76238;PMS7003;65043;48.392;-4.472;2023-05-07T00:54:56;12.00;12.00;6.50
76238;PMS7003;65043;48.392;-4.472;2023-05-07T00:57:21;11.25;10.75;5.75
76238;PMS7003;65043;48.392;-4.472;2023-05-07T00:59:50;15.50;12.50;6.00
76238;PMS7003;65043;48.392;-4.472;2023-05-07T01:02:16;12.75;12.75;7.00
76238;PMS7003;65043;48.392;-4.472;2023-05-07T01:04:41;16.00;14.50;8.00
76238;PMS7003;65043;48.392;-4.472;2023-05-07T01:07:07;15.25;12.25;6.75
76238;PMS7003;65043;48.392;-4.472;2023-05-07T01:09:33;9.00;9.00;5.25
76238;PMS7003;65043;48.392;-4.472;2023-05-07T01:12:00;16.00;12.00;6.75
76238;PMS7003;65043;48.392;-4.472;2023-05-07T01:14:26;10.25;8.75;5.75
76238;PMS7003;65043;48.392;-4.472;2023-05-07T01:16:52;16.75;8.75;4.00
76238;PMS7003;65043;48.392;-4.472;2023-05-07T01:19:18;9.00;8.00;5.25
76238;PMS7003;65043;48.392;-4.472;2023-05-07T01:21:48;10.75;9.00;6.00
76238;PMS7003;65043;48.392;-4.472;2023-05-07T01:24:14;11.75;10.25;7.00
76238;PMS7003;65043;48.392;-4.472;2023-05-07T01:26:40;10.50;9.50;6.00
76238;PMS7003;65043;48.392;-4.472;2023-05-07T01:29:06;9.25;5.25;2.25
76238;PMS7003;65043;48.392;-4.472;2023-05-07T01:31:32;11.50;11.00;6.50
76238;PMS7003;65043;48.392;-4.472;2023-05-07T01:34:00;16.50;13.50;6.50
76238;PMS7003;65043;48.392;-4.472;2023-05-07T01:36:26;12.75;12.00;6.75
76238;PMS7003;65043;48.392;-4.472;2023-05-07T01:38:54;14.00;11.75;6.00
76238;PMS7003;65043;48.392;-4.472;2023-05-07T01:41:19;14.50;11.75;6.00
76238;PMS7003;65043;48.392;-4.472;2023-05-07T01:43:46;16.75;13.75;7.50
76238;PMS7003;65043;48.392;-4.472;2023-05-07T01:46:12;13.75;10.00;5.75
76238;PMS7003;65043;48.392;-4.472;2023-05-07T01:48:38;10.00;9.00;6.00
76238;PMS7003;65043;48.392;-4.472;2023-05-07T01:51:04;12.25;11.50;6.00
76238;PMS7003;65043;48.392;-4.472;2023-05-07T01:53:35;14.25;12.25;7.00
76238;PMS7003;65043;48.392;-4.472;2023-05-07T01:56:04;15.50;11.75;6.25
76238;PMS7003;65043;48.392;-4.472;2023-05-07T01:58:30;11.50;11.50;6.25
76238;PMS7003;65043;48.392;-4.472;2023-05-07T02:00:56;12.50;10.50;6.75
76238;PMS7003;65043;48.392;-4.472;2023-05-07T02:03:21;13.00;9.75;5.50
76238;PMS7003;65043;48.392;-4.472;2023-05-07T02:05:47;12.00;11.00;7.00
76238;PMS7003;65043;48.392;-4.472;2023-05-07T02:08:12;13.25;10.25;7.50
76238;PMS7003;65043;48.392;-4.472;2023-05-07T02:10:37;12.50;9.25;5.00
76238;PMS7003;65043;48.392;-4.472;2023-05-07T02:13:03;11.25;10.00;5.75
76238;PMS7003;65043;48.392;-4.472;2023-05-07T02:15:28;13.25;11.00;5.75
76238;PMS7003;65043;48.392;-4.472;2023-05-07T02:18:01;12.75;10.50;5.25
76238;PMS7003;65043;48.392;-4.472;2023-05-07T02:20:34;10.50;10.50;5.25
76238;PMS7003;65043;48.392;-4.472;2023-05-07T02:23:00;10.25;8.50;5.50
76238;PMS7003;65043;48.392;-4.472;2023-05-07T02:25:25;10.75;10.00;6.00
76238;PMS7003;65043;48.392;-4.472;2023-05-07T02:27:51;11.00;9.25;5.75
76238;PMS7003;65043;48.392;-4.472;2023-05-07T02:30:16;12.75;11.25;7.00
76238;PMS7003;65043;48.392;-4.472;2023-05-07T02:32:42;10.75;10.50;5.00
76238;PMS7003;65043;48.392;-4.472;2023-05-07T02:35:07;10.00;8.50;5.00
76238;PMS7003;65043;48.392;-4.472;2023-05-07T02:37:33;11.00;6.75;4.50
76238;PMS7003;65043;48.392;-4.472;2023-05-07T02:39:58;9.25;7.00;4.00
76238;PMS7003;65043;48.392;-4.472;2023-05-07T02:42:24;10.25;7.75;4.25
76238;PMS7003;65043;48.392;-4.472;2023-05-07T02:44:49;8.75;8.00;4.50
76238;PMS7003;65043;48.392;-4.472;2023-05-07T02:47:15;7.75;7.75;4.75
76238;PMS7003;65043;48.392;-4.472;2023-05-07T02:49:40;10.75;8.25;5.25
76238;PMS7003;65043;48.392;-4.472;2023-05-07T02:52:06;8.50;7.50;4.00
76238;PMS7003;65043;48.392;-4.472;2023-05-07T02:54:32;11.75;8.75;4.00
76238;PMS7003;65043;48.392;-4.472;2023-05-07T02:56:58;7.00;7.00;3.00
76238;PMS7003;65043;48.392;-4.472;2023-05-07T02:59:23;8.50;6.75;4.00
76238;PMS7003;65043;48.392;-4.472;2023-05-07T03:01:49;6.75;6.50;4.00
76238;PMS7003;65043;48.392;-4.472;2023-05-07T03:04:14;8.00;8.00;4.25
76238;PMS7003;65043;48.392;-4.472;2023-05-07T03:06:40;4.75;4.75;3.50
76238;PMS7003;65043;48.392;-4.472;2023-05-07T03:09:05;7.50;4.00;3.00
76238;PMS7003;65043;48.392;-4.472;2023-05-07T03:11:31;7.00;7.00;3.00
76238;PMS7003;65043;48.392;-4.472;2023-05-07T03:13:56;6.25;5.75;4.00
76238;PMS7003;65043;48.392;-4.472;2023-05-07T03:16:21;5.00;5.00;3.50
76238;PMS7003;65043;48.392;-4.472;2023-05-07T03:18:47;6.00;6.00;4.00
76238;PMS7003;65043;48.392;-4.472;2023-05-07T03:21:12;11.00;8.00;4.00
76238;PMS7003;65043;48.392;-4.472;2023-05-07T03:23:38;9.50;7.00;4.00
76238;PMS7003;65043;48.392;-4.472;2023-05-07T03:26:04;5.00;3.50;2.75
76238;PMS7003;65043;48.392;-4.472;2023-05-07T03:28:29;10.50;7.25;4.00
76238;PMS7003;65043;48.392;-4.472;2023-05-07T03:30:55;8.75;6.75;4.00
76238;PMS7003;65043;48.392;-4.472;2023-05-07T03:33:20;7.25;6.50;4.00
76238;PMS7003;65043;48.392;-4.472;2023-05-07T03:35:46;5.00;4.00;3.00
76238;PMS7003;65043;48.392;-4.472;2023-05-07T03:38:11;3.00;3.00;3.00
76238;PMS7003;65043;48.392;-4.472;2023-05-07T03:40:36;7.00;3.75;2.50
76238;PMS7003;65043;48.392;-4.472;2023-05-07T03:43:02;5.00;4.00;2.00
76238;PMS7003;65043;48.392;-4.472;2023-05-07T03:45:27;3.00;3.00;2.00
76238;PMS7003;65043;48.392;-4.472;2023-05-07T03:47:53;3.25;3.00;2.00
76238;PMS7003;65043;48.392;-4.472;2023-05-07T03:50:18;3.75;3.00;2.00
76238;PMS7003;65043;48.392;-4.472;2023-05-07T03:52:44;5.00;3.00;2.00
76238;PMS7003;65043;48.392;-4.472;2023-05-07T03:55:10;3.75;3.00;2.00
76238;PMS7003;65043;48.392;-4.472;2023-05-07T03:57:36;7.00;4.50;3.50
76238;PMS7003;65043;48.392;-4.472;2023-05-07T04:00:01;8.50;6.75;3.75
76238;PMS7003;65043;48.392;-4.472;2023-05-07T04:02:28;9.75;8.25;5.00
76238;PMS7003;65043;48.392;-4.472;2023-05-07T04:04:54;10.25;8.00;4.75
76238;PMS7003;65043;48.392;-4.472;2023-05-07T04:07:19;8.75;8.75;4.25
76238;PMS7003;65043;48.392;-4.472;2023-05-07T04:09:45;8.75;8.00;4.50
76238;PMS7003;65043;48.392;-4.472;2023-05-07T04:12:10;7.75;6.25;3.75
76238;PMS7003;65043;48.392;-4.472;2023-05-07T04:14:35;6.00;6.00;4.00
76238;PMS7003;65043;48.392;-4.472;2023-05-07T04:17:01;7.25;5.25;4.00
76238;PMS7003;65043;48.392;-4.472;2023-05-07T04:19:27;9.50;7.00;5.00
76238;PMS7003;65043;48.392;-4.472;2023-05-07T04:21:53;11.25;7.00;5.00
76238;PMS7003;65043;48.392;-4.472;2023-05-07T04:24:18;7.75;6.50;4.00
76238;PMS7003;65043;48.392;-4.472;2023-05-07T04:26:44;8.00;6.25;3.75
76238;PMS7003;65043;48.392;-4.472;2023-05-07T04:29:09;7.50;5.00;3.00
76238;PMS7003;65043;48.392;-4.472;2023-05-07T04:31:34;7.75;6.75;4.50
76238;PMS7003;65043;48.392;-4.472;2023-05-07T04:34:00;3.75;3.75;2.00
76238;PMS7003;65043;48.392;-4.472;2023-05-07T04:36:26;8.50;7.50;5.50
76238;PMS7003;65043;48.392;-4.472;2023-05-07T04:38:52;9.25;7.00;5.00
76238;PMS7003;65043;48.392;-4.472;2023-05-07T04:41:18;7.00;7.00;5.00
76238;PMS7003;65043;48.392;-4.472;2023-05-07T04:43:44;8.00;7.00;4.00
76238;PMS7003;65043;48.392;-4.472;2023-05-07T04:46:09;8.50;7.75;4.75
76238;PMS7003;65043;48.392;-4.472;2023-05-07T04:48:35;9.75;9.00;4.75
76238;PMS7003;65043;48.392;-4.472;2023-05-07T04:51:00;11.25;8.50;4.25
76238;PMS7003;65043;48.392;-4.472;2023-05-07T04:53:25;7.50;6.75;4.00
76238;PMS7003;65043;48.392;-4.472;2023-05-07T04:55:55;7.00;6.50;4.50
76238;PMS7003;65043;48.392;-4.472;2023-05-07T04:58:24;5.50;5.25;3.00
76238;PMS7003;65043;48.392;-4.472;2023-05-07T05:00:50;5.25;5.00;4.00
76238;PMS7003;65043;48.392;-4.472;2023-05-07T05:03:15;4.25;4.25;3.25
76238;PMS7003;65043;48.392;-4.472;2023-05-07T05:05:40;8.50;5.00;4.00
76238;PMS7003;65043;48.392;-4.472;2023-05-07T05:08:06;6.00;4.00;3.00
76238;PMS7003;65043;48.392;-4.472;2023-05-07T05:10:31;7.75;7.75;5.00
76238;PMS7003;65043;48.392;-4.472;2023-05-07T05:12:57;9.00;7.00;5.00
76238;PMS7003;65043;48.392;-4.472;2023-05-07T05:15:22;9.00;5.00;4.00
76238;PMS7003;65043;48.392;-4.472;2023-05-07T05:17:48;4.25;4.25;4.00
76238;PMS7003;65043;48.392;-4.472;2023-05-07T05:20:13;7.50;5.25;4.00
76238;PMS7003;65043;48.392;-4.472;2023-05-07T05:22:39;7.75;5.00;4.00
76238;PMS7003;65043;48.392;-4.472;2023-05-07T05:25:05;7.00;6.00;5.00
76238;PMS7003;65043;48.392;-4.472;2023-05-07T05:27:31;6.75;6.75;4.00
76238;PMS7003;65043;48.392;-4.472;2023-05-07T05:29:56;8.00;6.25;5.00
76238;PMS7003;65043;48.392;-4.472;2023-05-07T05:32:22;9.50;8.25;5.75
76238;PMS7003;65043;48.392;-4.472;2023-05-07T05:34:47;9.75;8.00;5.25
76238;PMS7003;65043;48.392;-4.472;2023-05-07T05:37:12;7.50;7.50;5.00
76238;PMS7003;65043;48.392;-4.472;2023-05-07T05:39:38;9.25;7.00;5.00
76238;PMS7003;65043;48.392;-4.472;2023-05-07T05:42:03;7.75;6.00;4.00
76238;PMS7003;65043;48.392;-4.472;2023-05-07T05:44:29;10.75;7.75;4.50
76238;PMS7003;65043;48.392;-4.472;2023-05-07T05:46:54;6.25;6.25;4.00
76238;PMS7003;65043;48.392;-4.472;2023-05-07T05:49:22;7.00;7.00;3.75
76238;PMS7003;65043;48.392;-4.472;2023-05-07T05:51:48;3.50;3.50;2.75
76238;PMS7003;65043;48.392;-4.472;2023-05-07T05:54:13;5.25;5.25;3.00
76238;PMS7003;65043;48.392;-4.472;2023-05-07T05:56:38;5.75;4.00;3.00
76238;PMS7003;65043;48.392;-4.472;2023-05-07T05:59:04;5.00;4.00;2.25
76238;PMS7003;65043;48.392;-4.472;2023-05-07T06:01:29;5.00;4.00;2.00
76238;PMS7003;65043;48.392;-4.472;2023-05-07T06:03:55;5.00;3.75;3.00
76238;PMS7003;65043;48.392;-4.472;2023-05-07T06:06:21;6.00;6.00;5.00
76238;PMS7003;65043;48.392;-4.472;2023-05-07T06:08:46;5.50;5.25;4.00
76238;PMS7003;65043;48.392;-4.472;2023-05-07T06:11:12;7.75;6.75;3.50
76238;PMS7003;65043;48.392;-4.472;2023-05-07T06:13:37;6.25;4.50;4.00
76238;PMS7003;65043;48.392;-4.472;2023-05-07T06:16:03;6.50;6.50;4.25
76238;PMS7003;65043;48.392;-4.472;2023-05-07T06:18:28;6.00;6.00;4.00
76238;PMS7003;65043;48.392;-4.472;2023-05-07T06:20:53;4.75;4.25;3.25
76238;PMS7003;65043;48.392;-4.472;2023-05-07T06:23:19;3.00;3.00;2.00
76238;PMS7003;65043;48.392;-4.472;2023-05-07T06:25:48;8.25;6.00;3.50
76238;PMS7003;65043;48.392;-4.472;2023-05-07T06:28:15;5.25;5.25;3.00
76238;PMS7003;65043;48.392;-4.472;2023-05-07T06:30:40;8.00;3.25;3.00
76238;PMS7003;65043;48.392;-4.472;2023-05-07T06:33:05;4.00;4.00;2.50
76238;PMS7003;65043;48.392;-4.472;2023-05-07T06:35:31;4.00;4.00;3.00
76238;PMS7003;65043;48.392;-4.472;2023-05-07T06:37:56;5.00;4.00;2.75
76238;PMS7003;65043;48.392;-4.472;2023-05-07T06:40:22;3.25;2.50;2.00
76238;PMS7003;65043;48.392;-4.472;2023-05-07T06:42:47;4.00;4.00;2.25
76238;PMS7003;65043;48.392;-4.472;2023-05-07T06:45:12;3.00;3.00;2.00
76238;PMS7003;65043;48.392;-4.472;2023-05-07T06:47:38;5.75;3.75;2.75
76238;PMS7003;65043;48.392;-4.472;2023-05-07T06:50:03;4.25;4.25;3.00
76238;PMS7003;65043;48.392;-4.472;2023-05-07T06:52:29;4.75;3.00;2.00
76238;PMS7003;65043;48.392;-4.472;2023-05-07T06:54:54;3.00;3.00;3.00
76238;PMS7003;65043;48.392;-4.472;2023-05-07T06:57:20;5.50;3.75;2.00
76238;PMS7003;65043;48.392;-4.472;2023-05-07T06:59:45;7.00;5.00;3.25
76238;PMS7003;65043;48.392;-4.472;2023-05-07T07:02:10;5.00;5.00;2.00
76238;PMS7003;65043;48.392;-4.472;2023-05-07T07:04:36;5.00;5.00;2.75
76238;PMS7003;65043;48.392;-4.472;2023-05-07T07:07:01;4.50;4.00;3.00
76238;PMS7003;65043;48.392;-4.472;2023-05-07T07:09:26;5.00;5.00;4.00
76238;PMS7003;65043;48.392;-4.472;2023-05-07T07:11:52;3.50;3.50;2.00
76238;PMS7003;65043;48.392;-4.472;2023-05-07T07:14:17;3.75;3.75;3.00
76238;PMS7003;65043;48.392;-4.472;2023-05-07T07:16:43;5.25;4.50;3.00
76238;PMS7003;65043;48.392;-4.472;2023-05-07T07:19:08;4.25;4.25;4.00
76238;PMS7003;65043;48.392;-4.472;2023-05-07T07:21:33;4.00;4.00;2.75
76238;PMS7003;65043;48.392;-4.472;2023-05-07T07:23:59;5.50;4.50;3.00
76238;PMS7003;65043;48.392;-4.472;2023-05-07T07:26:24;8.50;5.50;3.00
76238;PMS7003;65043;48.392;-4.472;2023-05-07T07:28:50;5.00;3.75;2.50
76238;PMS7003;65043;48.392;-4.472;2023-05-07T07:31:15;4.00;4.00;3.00
76238;PMS7003;65043;48.392;-4.472;2023-05-07T07:33:41;3.25;3.25;2.00
76238;PMS7003;65043;48.392;-4.472;2023-05-07T07:36:06;5.00;4.75;3.75
76238;PMS7003;65043;48.392;-4.472;2023-05-07T07:38:32;5.75;4.75;3.00
76238;PMS7003;65043;48.392;-4.472;2023-05-07T07:40:58;5.25;3.75;2.50
76238;PMS7003;65043;48.392;-4.472;2023-05-07T07:43:23;8.00;5.25;3.00
76238;PMS7003;65043;48.392;-4.472;2023-05-07T07:45:49;4.75;4.00;2.00
76238;PMS7003;65043;48.392;-4.472;2023-05-07T07:48:14;7.75;5.25;3.75
76238;PMS7003;65043;48.392;-4.472;2023-05-07T07:50:40;5.25;5.25;4.00
76238;PMS7003;65043;48.392;-4.472;2023-05-07T07:53:05;3.75;3.75;2.75
76238;PMS7003;65043;48.392;-4.472;2023-05-07T07:55:30;5.50;5.00;3.50
76238;PMS7003;65043;48.392;-4.472;2023-05-07T07:57:57;10.75;7.00;4.00
76238;PMS7003;65043;48.392;-4.472;2023-05-07T08:00:22;6.00;4.50;4.00
76238;PMS7003;65043;48.392;-4.472;2023-05-07T08:02:48;5.00;5.00;3.00
76238;PMS7003;65043;48.392;-4.472;2023-05-07T08:05:13;5.25;5.25;4.00
76238;PMS7003;65043;48.392;-4.472;2023-05-07T08:07:40;6.00;5.00;4.00
76238;PMS7003;65043;48.392;-4.472;2023-05-07T08:10:05;9.00;8.25;5.25
76238;PMS7003;65043;48.392;-4.472;2023-05-07T08:12:31;6.50;6.25;4.00
76238;PMS7003;65043;48.392;-4.472;2023-05-07T08:14:56;7.50;6.25;4.00
76238;PMS7003;65043;48.392;-4.472;2023-05-07T08:17:22;8.50;7.25;4.25
76238;PMS7003;65043;48.392;-4.472;2023-05-07T08:19:47;6.75;5.75;4.00
76238;PMS7003;65043;48.392;-4.472;2023-05-07T08:22:13;7.75;6.00;4.00
76238;PMS7003;65043;48.392;-4.472;2023-05-07T08:24:39;9.50;7.00;5.00
76238;PMS7003;65043;48.392;-4.472;2023-05-07T08:27:05;9.00;7.50;5.00
76238;PMS7003;65043;48.392;-4.472;2023-05-07T08:29:30;7.00;6.00;4.75
76238;PMS7003;65043;48.392;-4.472;2023-05-07T08:31:56;6.50;6.00;4.00
76238;PMS7003;65043;48.392;-4.472;2023-05-07T08:34:21;6.75;6.75;4.00
76238;PMS7003;65043;48.392;-4.472;2023-05-07T08:36:47;8.50;6.75;4.75
76238;PMS7003;65043;48.392;-4.472;2023-05-07T08:39:13;9.25;6.50;3.75
76238;PMS7003;65043;48.392;-4.472;2023-05-07T08:41:41;8.00;6.75;5.00
76238;PMS7003;65043;48.392;-4.472;2023-05-07T08:44:11;4.25;3.25;2.75
76238;PMS7003;65043;48.392;-4.472;2023-05-07T08:46:38;6.00;6.00;3.00
76238;PMS7003;65043;48.392;-4.472;2023-05-07T08:49:05;3.75;2.00;0.50
76238;PMS7003;65043;48.392;-4.472;2023-05-07T08:51:30;4.50;4.50;3.25
76238;PMS7003;65043;48.392;-4.472;2023-05-07T08:53:56;3.50;3.50;2.50
76238;PMS7003;65043;48.392;-4.472;2023-05-07T08:56:22;5.00;4.75;3.00
76238;PMS7003;65043;48.392;-4.472;2023-05-07T08:58:48;5.25;4.25;3.25
76238;PMS7003;65043;48.392;-4.472;2023-05-07T09:01:14;4.50;3.25;2.00
76238;PMS7003;65043;48.392;-4.472;2023-05-07T09:03:40;5.00;4.25;1.75
76238;PMS7003;65043;48.392;-4.472;2023-05-07T09:06:06;3.00;3.00;1.75
76238;PMS7003;65043;48.392;-4.472;2023-05-07T09:08:32;2.50;2.50;1.50
76238;PMS7003;65043;48.392;-4.472;2023-05-07T09:10:58;4.25;1.75;1.00
76238;PMS7003;65043;48.392;-4.472;2023-05-07T09:13:24;4.50;2.25;2.00
76238;PMS7003;65043;48.392;-4.472;2023-05-07T09:15:49;2.25;2.00;0.75
76238;PMS7003;65043;48.392;-4.472;2023-05-07T09:18:15;6.00;3.50;2.00
76238;PMS7003;65043;48.392;-4.472;2023-05-07T09:20:40;3.00;2.00;1.25
76238;PMS7003;65043;48.392;-4.472;2023-05-07T09:23:06;3.75;3.00;2.00
76238;PMS7003;65043;48.392;-4.472;2023-05-07T09:25:33;2.00;2.00;1.25
76238;PMS7003;65043;48.392;-4.472;2023-05-07T09:28:00;5.00;5.00;1.00
76238;PMS7003;65043;48.392;-4.472;2023-05-07T09:30:27;2.75;1.50;0.75
76238;PMS7003;65043;48.392;-4.472;2023-05-07T09:32:54;5.25;2.75;1.75
76238;PMS7003;65043;48.392;-4.472;2023-05-07T09:35:20;4.50;2.00;0.50
76238;PMS7003;65043;48.392;-4.472;2023-05-07T09:37:58;91.00;75.00;44.75
76238;PMS7003;65043;48.392;-4.472;2023-05-07T09:40:27;88.00;74.00;42.25
76238;PMS7003;65043;48.392;-4.472;2023-05-07T09:42:54;38.00;31.00;23.00
76238;PMS7003;65043;48.392;-4.472;2023-05-07T09:45:26;79.00;58.50;34.50
76238;PMS7003;65043;48.392;-4.472;2023-05-07T09:47:56;214.50;183.75;93.00
76238;PMS7003;65043;48.392;-4.472;2023-05-07T09:50:27;78.50;59.50;37.75
76238;PMS7003;65043;48.392;-4.472;2023-05-07T09:52:54;18.00;16.50;9.75
76238;PMS7003;65043;48.392;-4.472;2023-05-07T09:55:21;13.25;7.75;4.75
76238;PMS7003;65043;48.392;-4.472;2023-05-07T09:57:50;6.00;5.00;3.00
76238;PMS7003;65043;48.392;-4.472;2023-05-07T10:00:18;6.00;4.75;3.00
76238;PMS7003;65043;48.392;-4.472;2023-05-07T10:02:49;4.25;3.00;2.00
76238;PMS7003;65043;48.392;-4.472;2023-05-07T10:05:20;3.50;2.25;1.75
76238;PMS7003;65043;48.392;-4.472;2023-05-07T10:07:46;4.50;2.50;1.75
76238;PMS7003;65043;48.392;-4.472;2023-05-07T10:10:12;1.50;1.50;1.00
76238;PMS7003;65043;48.392;-4.472;2023-05-07T10:12:40;3.75;2.00;2.00
76238;PMS7003;65043;48.392;-4.472;2023-05-07T10:15:06;1.50;1.50;1.00
76238;PMS7003;65043;48.392;-4.472;2023-05-07T10:17:38;2.75;2.00;2.00
76238;PMS7003;65043;48.392;-4.472;2023-05-07T10:20:05;2.00;1.50;1.00
76238;PMS7003;65043;48.392;-4.472;2023-05-07T10:22:33;2.25;1.00;0.75
76238;PMS7003;65043;48.392;-4.472;2023-05-07T10:25:04;4.00;2.00;1.25
76238;PMS7003;65043;48.392;-4.472;2023-05-07T10:27:34;1.25;1.25;1.00
76238;PMS7003;65043;48.392;-4.472;2023-05-07T10:30:07;4.00;1.00;1.00
76238;PMS7003;65043;48.392;-4.472;2023-05-07T10:32:55;3.50;2.00;1.00
76238;PMS7003;65043;48.392;-4.472;2023-05-07T10:35:30;2.00;1.75;0.75
76238;PMS7003;65043;48.392;-4.472;2023-05-07T10:38:01;3.00;2.75;1.00
76238;PMS7003;65043;48.392;-4.472;2023-05-07T10:40:27;4.25;4.25;2.00
76238;PMS7003;65043;48.392;-4.472;2023-05-07T10:42:53;3.75;3.75;2.00
76238;PMS7003;65043;48.392;-4.472;2023-05-07T10:45:37;2.75;2.75;1.00
76238;PMS7003;65043;48.392;-4.472;2023-05-07T10:50:33;2.50;2.50;1.00
76238;PMS7003;65043;48.392;-4.472;2023-05-07T10:55:43;6.25;3.50;2.25
76238;PMS7003;65043;48.392;-4.472;2023-05-07T10:58:31;7.00;3.00;3.00
76238;PMS7003;65043;48.392;-4.472;2023-05-07T11:01:01;5.00;5.00;2.00
76238;PMS7003;65043;48.392;-4.472;2023-05-07T11:03:27;6.50;4.25;4.00
76238;PMS7003;65043;48.392;-4.472;2023-05-07T11:06:09;7.00;6.00;2.00
76238;PMS7003;65043;48.392;-4.472;2023-05-07T11:11:16;3.00;3.00;2.00
76238;PMS7003;65043;48.392;-4.472;2023-05-07T11:13:43;5.75;4.00;2.25
76238;PMS7003;65043;48.392;-4.472;2023-05-07T11:18:50;3.50;3.00;2.00
76238;PMS7003;65043;48.392;-4.472;2023-05-07T11:21:37;3.75;3.25;2.00
76238;PMS7003;65043;48.392;-4.472;2023-05-07T11:24:05;6.00;3.25;2.00
76238;PMS7003;65043;48.392;-4.472;2023-05-07T11:26:41;2.50;2.50;1.25
76238;PMS7003;65043;48.392;-4.472;2023-05-07T11:29:14;2.25;2.25;1.00
76238;PMS7003;65043;48.392;-4.472;2023-05-07T11:31:41;3.00;2.50;1.00
76238;PMS7003;65043;48.392;-4.472;2023-05-07T11:34:06;3.25;3.25;2.00
76238;PMS7003;65043;48.392;-4.472;2023-05-07T11:36:32;4.25;4.25;2.50
76238;PMS7003;65043;48.392;-4.472;2023-05-07T11:38:58;2.50;2.50;2.00
76238;PMS7003;65043;48.392;-4.472;2023-05-07T11:41:34;4.75;3.25;1.00
76238;PMS7003;65043;48.392;-4.472;2023-05-07T11:44:01;3.75;2.00;2.00
76238;PMS7003;65043;48.392;-4.472;2023-05-07T11:46:27;2.00;1.75;1.00
76238;PMS7003;65043;48.392;-4.472;2023-05-07T11:48:53;3.75;3.75;2.00
76238;PMS7003;65043;48.392;-4.472;2023-05-07T11:51:25;4.50;3.00;2.00
76238;PMS7003;65043;48.392;-4.472;2023-05-07T11:53:51;3.50;3.50;2.00
76238;PMS7003;65043;48.392;-4.472;2023-05-07T11:56:17;5.75;3.50;1.75
76238;PMS7003;65043;48.392;-4.472;2023-05-07T11:58:44;5.50;3.75;2.00
76238;PMS7003;65043;48.392;-4.472;2023-05-07T12:01:11;3.50;3.50;2.00
76238;PMS7003;65043;48.392;-4.472;2023-05-07T12:03:40;4.25;4.25;2.00
76238;PMS7003;65043;48.392;-4.472;2023-05-07T12:06:13;6.75;2.00;1.00
76238;PMS7003;65043;48.392;-4.472;2023-05-07T12:08:40;4.00;3.25;2.00
76238;PMS7003;65043;48.392;-4.472;2023-05-07T12:11:07;3.00;3.00;2.00
76238;PMS7003;65043;48.392;-4.472;2023-05-07T12:13:34;4.75;3.50;1.75
76238;PMS7003;65043;48.392;-4.472;2023-05-07T12:16:00;3.75;3.50;2.00
76238;PMS7003;65043;48.392;-4.472;2023-05-07T12:18:28;2.00;2.00;1.25
76238;PMS7003;65043;48.392;-4.472;2023-05-07T12:20:55;4.50;3.50;1.75
76238;PMS7003;65043;48.392;-4.472;2023-05-07T12:23:20;4.50;3.00;2.00
76238;PMS7003;65043;48.392;-4.472;2023-05-07T12:25:47;4.25;2.50;1.25
76238;PMS7003;65043;48.392;-4.472;2023-05-07T12:28:13;2.50;2.50;2.00
76238;PMS7003;65043;48.392;-4.472;2023-05-07T12:30:40;5.50;4.25;2.25
76238;PMS7003;65043;48.392;-4.472;2023-05-07T12:33:07;3.75;3.00;2.00
76238;PMS7003;65043;48.392;-4.472;2023-05-07T12:35:36;5.00;3.25;2.00
76238;PMS7003;65043;48.392;-4.472;2023-05-07T12:38:07;6.00;3.25;2.00
76238;PMS7003;65043;48.392;-4.472;2023-05-07T12:40:37;5.50;4.50;1.75
76238;PMS7003;65043;48.392;-4.472;2023-05-07T12:43:04;7.75;3.50;3.00
76238;PMS7003;65043;48.392;-4.472;2023-05-07T12:45:29;4.50;3.50;2.00
76238;PMS7003;65043;48.392;-4.472;2023-05-07T12:47:55;6.25;3.00;2.00
76238;PMS7003;65043;48.392;-4.472;2023-05-07T12:50:21;3.75;3.00;3.00
76238;PMS7003;65043;48.392;-4.472;2023-05-07T12:52:47;5.75;4.50;2.00
76238;PMS7003;65043;48.392;-4.472;2023-05-07T12:55:13;6.25;4.50;2.75
76238;PMS7003;65043;48.392;-4.472;2023-05-07T12:57:43;5.00;3.50;2.00
76238;PMS7003;65043;48.392;-4.472;2023-05-07T13:00:13;7.75;4.50;1.75
76238;PMS7003;65043;48.392;-4.472;2023-05-07T13:02:39;8.75;4.75;2.75
76238;PMS7003;65043;48.392;-4.472;2023-05-07T13:05:09;6.75;6.75;4.50
76238;PMS7003;65043;48.392;-4.472;2023-05-07T13:07:34;30.25;24.25;16.00
76238;PMS7003;65043;48.392;-4.472;2023-05-07T13:10:01;34.00;26.00;13.75
76238;PMS7003;65043;48.392;-4.472;2023-05-07T13:12:26;48.00;37.25;23.50
76238;PMS7003;65043;48.392;-4.472;2023-05-07T13:14:52;46.75;40.00;23.50
76238;PMS7003;65043;48.392;-4.472;2023-05-07T13:17:17;29.75;27.25;16.75
76238;PMS7003;65043;48.392;-4.472;2023-05-07T13:19:43;24.00;20.75;14.25
76238;PMS7003;65043;48.392;-4.472;2023-05-07T13:22:09;18.50;16.50;8.50
76238;PMS7003;65043;48.392;-4.472;2023-05-07T13:24:34;23.50;17.75;10.00
76238;PMS7003;65043;48.392;-4.472;2023-05-07T13:27:00;17.25;13.50;8.00
76238;PMS7003;65043;48.392;-4.472;2023-05-07T13:29:25;14.00;13.75;8.50
76238;PMS7003;65043;48.392;-4.472;2023-05-07T13:31:55;29.00;24.50;12.00
76238;PMS7003;65043;48.392;-4.472;2023-05-07T13:34:21;18.50;16.75;10.25
76238;PMS7003;65043;48.392;-4.472;2023-05-07T13:36:47;14.00;12.50;7.25
76238;PMS7003;65043;48.392;-4.472;2023-05-07T13:39:12;6.75;6.75;6.00
76238;PMS7003;65043;48.392;-4.472;2023-05-07T13:41:38;13.75;9.25;6.25
76238;PMS7003;65043;48.392;-4.472;2023-05-07T13:44:03;9.75;6.25;3.00
76238;PMS7003;65043;48.392;-4.472;2023-05-07T13:46:29;6.75;6.75;4.00
76238;PMS7003;65043;48.392;-4.472;2023-05-07T13:48:55;8.75;6.00;3.25
76238;PMS7003;65043;48.392;-4.472;2023-05-07T13:51:20;6.25;3.50;2.25
76238;PMS7003;65043;48.392;-4.472;2023-05-07T13:53:46;6.50;6.00;3.00
76238;PMS7003;65043;48.392;-4.472;2023-05-07T13:56:12;4.00;3.00;3.00
76238;PMS7003;65043;48.392;-4.472;2023-05-07T13:58:37;4.00;3.00;2.00
76238;PMS7003;65043;48.392;-4.472;2023-05-07T14:01:03;5.50;5.00;1.25
76238;PMS7003;65043;48.392;-4.472;2023-05-07T14:03:28;7.25;6.00;3.00
76238;PMS7003;65043;48.392;-4.472;2023-05-07T14:05:56;6.75;3.75;2.50
76238;PMS7003;65043;48.392;-4.472;2023-05-07T14:08:22;9.25;9.00;5.00
76238;PMS7003;65043;48.392;-4.472;2023-05-07T14:10:48;4.25;4.00;3.00